sensor_id;sensor_type;location;lat;lon;timestamp;pressure;altitude;pressure_sealevel;temperature;humidity
61086;BME280;46967;48.876;2.136;2023-04-26T00:02:21;101648.69;;;35.91;nan
61086;BME280;46967;48.876;2.136;2023-04-26T00:04:50;101657.97;;;36.04;nan
61086;BME280;46967;48.876;2.136;2023-04-26T00:07:20;101646.44;;;36.17;nan
61086;BME280;46967;48.876;2.136;2023-04-26T00:09:45;101648.47;;;36.15;nan
61086;BME280;46967;48.876;2.136;2023-04-26T00:12:11;101649.94;;;36.17;nan
61086;BME280;46967;48.876;2.136;2023-04-26T00:14:36;101645.31;;;36.11;nan
61086;BME280;46967;48.876;2.136;2023-04-26T00:17:01;101637.81;;;36.06;nan
61086;BME280;46967;48.876;2.136;2023-04-26T00:19:28;101634.66;;;36.03;nan
61086;BME280;46967;48.876;2.136;2023-04-26T00:21:53;101629.75;;;36.13;nan
61086;BME280;46967;48.876;2.136;2023-04-26T00:24:19;101632.56;;;35.98;nan
61086;BME280;46967;48.876;2.136;2023-04-26T00:26:45;101632.16;;;36.01;nan
61086;BME280;46967;48.876;2.136;2023-04-26T00:29:10;101625.41;;;36.12;nan
61086;BME280;46967;48.876;2.136;2023-04-26T00:31:35;101620.72;;;35.99;nan
61086;BME280;46967;48.876;2.136;2023-04-26T00:34:01;101622.97;;;35.96;nan
61086;BME280;46967;48.876;2.136;2023-04-26T00:36:26;101622.41;;;35.79;nan
61086;BME280;46967;48.876;2.136;2023-04-26T00:38:52;101611.25;;;35.67;nan
61086;BME280;46967;48.876;2.136;2023-04-26T00:41:17;101619.41;;;35.73;nan
61086;BME280;46967;48.876;2.136;2023-04-26T00:43:42;101624.16;;;35.86;nan
61086;BME280;46967;48.876;2.136;2023-04-26T00:46:08;101614.56;;;35.84;nan
61086;BME280;46967;48.876;2.136;2023-04-26T00:48:36;101611.72;;;35.92;nan
61086;BME280;46967;48.876;2.136;2023-04-26T00:51:01;101609.22;;;35.90;nan
61086;BME280;46967;48.876;2.136;2023-04-26T00:53:27;101597.16;;;35.86;nan
61086;BME280;46967;48.876;2.136;2023-04-26T00:55:54;101598.75;;;35.81;nan
61086;BME280;46967;48.876;2.136;2023-04-26T00:58:20;101597.00;;;35.73;nan
61086;BME280;46967;48.876;2.136;2023-04-26T01:00:45;101601.56;;;35.72;nan
61086;BME280;46967;48.876;2.136;2023-04-26T01:03:11;101595.41;;;35.57;nan
61086;BME280;46967;48.876;2.136;2023-04-26T01:05:37;101594.50;;;35.50;nan
61086;BME280;46967;48.876;2.136;2023-04-26T01:08:02;101590.13;;;35.49;nan
61086;BME280;46967;48.876;2.136;2023-04-26T01:10:30;101594.88;;;35.68;nan
61086;BME280;46967;48.876;2.136;2023-04-26T01:12:56;101596.03;;;35.59;nan
61086;BME280;46967;48.876;2.136;2023-04-26T01:15:22;101597.72;;;35.60;nan
61086;BME280;46967;48.876;2.136;2023-04-26T01:17:47;101582.88;;;35.71;nan
61086;BME280;46967;48.876;2.136;2023-04-26T01:20:13;101583.25;;;35.68;nan
61086;BME280;46967;48.876;2.136;2023-04-26T01:22:39;101571.25;;;35.49;nan
61086;BME280;46967;48.876;2.136;2023-04-26T01:25:04;101571.75;;;35.37;nan
61086;BME280;46967;48.876;2.136;2023-04-26T01:27:33;101576.28;;;35.37;nan
61086;BME280;46967;48.876;2.136;2023-04-26T01:29:59;101573.34;;;35.32;nan
61086;BME280;46967;48.876;2.136;2023-04-26T01:32:25;101564.72;;;35.22;nan
61086;BME280;46967;48.876;2.136;2023-04-26T01:34:50;101571.56;;;35.24;nan
61086;BME280;46967;48.876;2.136;2023-04-26T01:37:16;101572.81;;;35.22;nan
61086;BME280;46967;48.876;2.136;2023-04-26T01:39:41;101559.13;;;35.23;nan
61086;BME280;46967;48.876;2.136;2023-04-26T01:42:06;101562.91;;;35.07;nan
61086;BME280;46967;48.876;2.136;2023-04-26T01:44:32;101565.13;;;35.04;nan
61086;BME280;46967;48.876;2.136;2023-04-26T01:46:57;101582.28;;;34.96;nan
61086;BME280;46967;48.876;2.136;2023-04-26T01:49:22;101579.75;;;34.94;nan
61086;BME280;46967;48.876;2.136;2023-04-26T01:51:48;101584.59;;;34.84;nan
61086;BME280;46967;48.876;2.136;2023-04-26T01:54:13;101578.19;;;34.85;nan
61086;BME280;46967;48.876;2.136;2023-04-26T01:56:38;101568.31;;;34.92;nan
61086;BME280;46967;48.876;2.136;2023-04-26T01:59:04;101563.28;;;35.04;nan
61086;BME280;46967;48.876;2.136;2023-04-26T02:01:29;101568.13;;;34.94;nan
61086;BME280;46967;48.876;2.136;2023-04-26T02:03:55;101564.09;;;35.05;nan
61086;BME280;46967;48.876;2.136;2023-04-26T02:06:20;101562.19;;;34.83;nan
61086;BME280;46967;48.876;2.136;2023-04-26T02:08:46;101563.72;;;35.08;nan
61086;BME280;46967;48.876;2.136;2023-04-26T02:11:11;101555.31;;;34.96;nan
61086;BME280;46967;48.876;2.136;2023-04-26T02:13:37;101554.38;;;34.59;nan
61086;BME280;46967;48.876;2.136;2023-04-26T02:16:02;101570.19;;;34.47;nan
61086;BME280;46967;48.876;2.136;2023-04-26T02:18:28;101576.03;;;34.65;nan
61086;BME280;46967;48.876;2.136;2023-04-26T02:20:53;101579.38;;;34.68;nan
61086;BME280;46967;48.876;2.136;2023-04-26T02:23:19;101563.03;;;34.84;nan
61086;BME280;46967;48.876;2.136;2023-04-26T02:25:45;101560.88;;;34.94;nan
61086;BME280;46967;48.876;2.136;2023-04-26T02:28:11;101564.97;;;34.90;nan
61086;BME280;46967;48.876;2.136;2023-04-26T02:30:37;101561.44;;;34.90;nan
61086;BME280;46967;48.876;2.136;2023-04-26T02:33:02;101553.31;;;35.05;nan
61086;BME280;46967;48.876;2.136;2023-04-26T02:35:27;101562.22;;;35.05;nan
61086;BME280;46967;48.876;2.136;2023-04-26T02:37:53;101561.78;;;35.01;nan
61086;BME280;46967;48.876;2.136;2023-04-26T02:40:19;101548.38;;;35.08;nan
61086;BME280;46967;48.876;2.136;2023-04-26T02:42:44;101555.19;;;35.04;nan
61086;BME280;46967;48.876;2.136;2023-04-26T02:45:10;101551.19;;;35.00;nan
61086;BME280;46967;48.876;2.136;2023-04-26T02:47:35;101557.59;;;34.99;nan
61086;BME280;46967;48.876;2.136;2023-04-26T02:50:06;101555.38;;;35.03;nan
61086;BME280;46967;48.876;2.136;2023-04-26T02:52:32;101555.81;;;35.06;nan
61086;BME280;46967;48.876;2.136;2023-04-26T02:54:58;101555.75;;;34.99;nan
61086;BME280;46967;48.876;2.136;2023-04-26T02:57:23;101559.34;;;35.07;nan
61086;BME280;46967;48.876;2.136;2023-04-26T02:59:48;101556.41;;;35.01;nan
61086;BME280;46967;48.876;2.136;2023-04-26T03:02:13;101545.75;;;35.30;nan
61086;BME280;46967;48.876;2.136;2023-04-26T03:04:39;101545.31;;;35.26;nan
61086;BME280;46967;48.876;2.136;2023-04-26T03:07:06;101549.56;;;35.35;nan
61086;BME280;46967;48.876;2.136;2023-04-26T03:09:31;101543.03;;;35.30;nan
61086;BME280;46967;48.876;2.136;2023-04-26T03:11:58;101536.34;;;35.26;nan
61086;BME280;46967;48.876;2.136;2023-04-26T03:14:24;101536.63;;;35.52;nan
61086;BME280;46967;48.876;2.136;2023-04-26T03:16:49;101540.47;;;35.43;nan
61086;BME280;46967;48.876;2.136;2023-04-26T03:19:14;101539.13;;;35.32;nan
61086;BME280;46967;48.876;2.136;2023-04-26T03:21:40;101534.97;;;35.30;nan
61086;BME280;46967;48.876;2.136;2023-04-26T03:24:05;101536.34;;;35.26;nan
61086;BME280;46967;48.876;2.136;2023-04-26T03:26:32;101535.97;;;35.29;nan
61086;BME280;46967;48.876;2.136;2023-04-26T03:28:57;101537.19;;;35.48;nan
61086;BME280;46967;48.876;2.136;2023-04-26T03:31:22;101538.09;;;35.55;nan
61086;BME280;46967;48.876;2.136;2023-04-26T03:33:48;101545.81;;;35.58;nan
61086;BME280;46967;48.876;2.136;2023-04-26T03:36:13;101546.13;;;35.48;nan
61086;BME280;46967;48.876;2.136;2023-04-26T03:38:39;101547.94;;;35.41;nan
61086;BME280;46967;48.876;2.136;2023-04-26T03:41:04;101544.47;;;35.47;nan
61086;BME280;46967;48.876;2.136;2023-04-26T03:43:29;101537.84;;;35.28;nan
61086;BME280;46967;48.876;2.136;2023-04-26T03:45:55;101540.41;;;35.36;nan
61086;BME280;46967;48.876;2.136;2023-04-26T03:48:20;101535.16;;;35.50;nan
61086;BME280;46967;48.876;2.136;2023-04-26T03:50:45;101528.13;;;35.55;nan
61086;BME280;46967;48.876;2.136;2023-04-26T03:53:11;101520.63;;;35.51;nan
61086;BME280;46967;48.876;2.136;2023-04-26T03:55:37;101532.56;;;35.63;nan
61086;BME280;46967;48.876;2.136;2023-04-26T03:58:02;101526.72;;;35.60;nan
61086;BME280;46967;48.876;2.136;2023-04-26T04:00:37;101525.78;;;35.46;nan
61086;BME280;46967;48.876;2.136;2023-04-26T04:03:03;101522.69;;;35.49;nan
61086;BME280;46967;48.876;2.136;2023-04-26T04:05:29;101527.44;;;35.25;nan
61086;BME280;46967;48.876;2.136;2023-04-26T04:07:54;101530.34;;;35.09;nan
61086;BME280;46967;48.876;2.136;2023-04-26T04:10:21;101525.28;;;35.20;nan
61086;BME280;46967;48.876;2.136;2023-04-26T04:12:47;101522.59;;;35.20;nan
61086;BME280;46967;48.876;2.136;2023-04-26T04:15:12;101519.16;;;34.90;nan
61086;BME280;46967;48.876;2.136;2023-04-26T04:17:38;101529.25;;;35.03;nan
61086;BME280;46967;48.876;2.136;2023-04-26T04:20:03;101529.47;;;34.87;nan
61086;BME280;46967;48.876;2.136;2023-04-26T04:22:31;101529.69;;;34.85;nan
61086;BME280;46967;48.876;2.136;2023-04-26T04:24:57;101532.06;;;35.31;nan
61086;BME280;46967;48.876;2.136;2023-04-26T04:27:23;101534.81;;;35.01;nan
61086;BME280;46967;48.876;2.136;2023-04-26T04:29:49;101529.63;;;35.00;nan
61086;BME280;46967;48.876;2.136;2023-04-26T04:32:14;101524.78;;;35.10;nan
61086;BME280;46967;48.876;2.136;2023-04-26T04:34:41;101533.94;;;35.16;nan
61086;BME280;46967;48.876;2.136;2023-04-26T04:37:07;101535.16;;;35.28;nan
61086;BME280;46967;48.876;2.136;2023-04-26T04:39:33;101531.56;;;35.06;nan
61086;BME280;46967;48.876;2.136;2023-04-26T04:41:58;101539.50;;;34.93;nan
61086;BME280;46967;48.876;2.136;2023-04-26T04:44:24;101539.22;;;34.88;nan
61086;BME280;46967;48.876;2.136;2023-04-26T04:46:51;101536.09;;;34.69;nan
61086;BME280;46967;48.876;2.136;2023-04-26T04:49:17;101526.06;;;34.63;nan
61086;BME280;46967;48.876;2.136;2023-04-26T04:51:43;101522.91;;;34.74;nan
61086;BME280;46967;48.876;2.136;2023-04-26T04:54:16;101510.59;;;35.23;nan
61086;BME280;46967;48.876;2.136;2023-04-26T04:56:43;101511.56;;;35.37;nan
61086;BME280;46967;48.876;2.136;2023-04-26T04:59:09;101510.41;;;35.46;nan
61086;BME280;46967;48.876;2.136;2023-04-26T05:01:35;101509.38;;;35.47;nan
61086;BME280;46967;48.876;2.136;2023-04-26T05:04:01;101527.78;;;35.65;nan
61086;BME280;46967;48.876;2.136;2023-04-26T05:06:27;101529.38;;;35.53;nan
61086;BME280;46967;48.876;2.136;2023-04-26T05:08:53;101521.59;;;35.43;nan
61086;BME280;46967;48.876;2.136;2023-04-26T05:11:19;101518.50;;;35.46;nan
61086;BME280;46967;48.876;2.136;2023-04-26T05:13:45;101531.41;;;35.72;nan
61086;BME280;46967;48.876;2.136;2023-04-26T05:16:10;101525.81;;;35.74;nan
61086;BME280;46967;48.876;2.136;2023-04-26T05:18:36;101531.09;;;35.82;nan
61086;BME280;46967;48.876;2.136;2023-04-26T05:21:01;101533.81;;;35.89;nan
61086;BME280;46967;48.876;2.136;2023-04-26T05:23:27;101537.19;;;35.69;nan
61086;BME280;46967;48.876;2.136;2023-04-26T05:25:52;101548.22;;;35.74;nan
61086;BME280;46967;48.876;2.136;2023-04-26T05:28:17;101545.16;;;35.78;nan
61086;BME280;46967;48.876;2.136;2023-04-26T05:30:42;101536.72;;;35.87;nan
61086;BME280;46967;48.876;2.136;2023-04-26T05:33:08;101537.63;;;35.73;nan
61086;BME280;46967;48.876;2.136;2023-04-26T05:35:34;101535.19;;;35.78;nan
61086;BME280;46967;48.876;2.136;2023-04-26T05:37:59;101538.28;;;35.53;nan
61086;BME280;46967;48.876;2.136;2023-04-26T05:40:25;101535.78;;;35.52;nan
61086;BME280;46967;48.876;2.136;2023-04-26T05:42:50;101529.66;;;35.65;nan
61086;BME280;46967;48.876;2.136;2023-04-26T05:45:16;101536.47;;;35.82;nan
61086;BME280;46967;48.876;2.136;2023-04-26T05:47:41;101547.09;;;35.84;nan
61086;BME280;46967;48.876;2.136;2023-04-26T05:50:07;101535.91;;;35.87;nan
61086;BME280;46967;48.876;2.136;2023-04-26T05:52:32;101535.69;;;35.67;nan
61086;BME280;46967;48.876;2.136;2023-04-26T05:54:58;101538.59;;;35.87;nan
61086;BME280;46967;48.876;2.136;2023-04-26T05:57:23;101537.84;;;36.00;nan
61086;BME280;46967;48.876;2.136;2023-04-26T05:59:49;101541.06;;;35.82;nan
61086;BME280;46967;48.876;2.136;2023-04-26T06:02:14;101537.38;;;35.68;nan
61086;BME280;46967;48.876;2.136;2023-04-26T06:04:40;101542.91;;;35.60;nan
61086;BME280;46967;48.876;2.136;2023-04-26T06:07:05;101550.38;;;35.79;nan
61086;BME280;46967;48.876;2.136;2023-04-26T06:09:31;101553.97;;;35.65;nan
61086;BME280;46967;48.876;2.136;2023-04-26T06:11:56;101551.69;;;35.68;nan
61086;BME280;46967;48.876;2.136;2023-04-26T06:14:22;101551.84;;;35.82;nan
61086;BME280;46967;48.876;2.136;2023-04-26T06:16:47;101553.91;;;35.80;nan
61086;BME280;46967;48.876;2.136;2023-04-26T06:19:12;101558.03;;;35.76;nan
61086;BME280;46967;48.876;2.136;2023-04-26T06:21:38;101546.31;;;35.68;nan
61086;BME280;46967;48.876;2.136;2023-04-26T06:24:03;101547.94;;;35.63;nan
61086;BME280;46967;48.876;2.136;2023-04-26T06:26:29;101543.78;;;35.67;nan
61086;BME280;46967;48.876;2.136;2023-04-26T06:28:55;101538.56;;;35.80;nan
61086;BME280;46967;48.876;2.136;2023-04-26T06:31:21;101539.94;;;35.98;nan
61086;BME280;46967;48.876;2.136;2023-04-26T06:33:47;101542.25;;;36.01;nan
61086;BME280;46967;48.876;2.136;2023-04-26T06:36:12;101546.69;;;36.15;nan
61086;BME280;46967;48.876;2.136;2023-04-26T06:38:38;101543.75;;;36.10;nan
61086;BME280;46967;48.876;2.136;2023-04-26T06:41:03;101542.88;;;36.03;nan
61086;BME280;46967;48.876;2.136;2023-04-26T06:43:28;101538.06;;;36.26;nan
61086;BME280;46967;48.876;2.136;2023-04-26T06:45:54;101541.00;;;36.32;nan
61086;BME280;46967;48.876;2.136;2023-04-26T06:48:19;101541.91;;;36.45;nan
61086;BME280;46967;48.876;2.136;2023-04-26T06:50:44;101540.72;;;36.55;nan
61086;BME280;46967;48.876;2.136;2023-04-26T06:53:10;101540.75;;;36.61;nan
61086;BME280;46967;48.876;2.136;2023-04-26T06:55:35;101552.41;;;36.69;nan
61086;BME280;46967;48.876;2.136;2023-04-26T06:58:01;101556.78;;;36.70;nan
61086;BME280;46967;48.876;2.136;2023-04-26T07:00:26;101555.41;;;36.45;nan
61086;BME280;46967;48.876;2.136;2023-04-26T07:02:52;101549.88;;;36.60;nan
61086;BME280;46967;48.876;2.136;2023-04-26T07:05:17;101554.00;;;36.91;nan
61086;BME280;46967;48.876;2.136;2023-04-26T07:07:43;101552.00;;;36.72;nan
61086;BME280;46967;48.876;2.136;2023-04-26T07:10:08;101557.03;;;36.75;nan
61086;BME280;46967;48.876;2.136;2023-04-26T07:12:34;101552.06;;;36.78;nan
61086;BME280;46967;48.876;2.136;2023-04-26T07:14:59;101553.97;;;36.85;nan
61086;BME280;46967;48.876;2.136;2023-04-26T07:17:25;101562.72;;;36.93;nan
61086;BME280;46967;48.876;2.136;2023-04-26T07:19:51;101555.38;;;36.74;nan
61086;BME280;46967;48.876;2.136;2023-04-26T07:22:16;101559.59;;;36.83;nan
61086;BME280;46967;48.876;2.136;2023-04-26T07:24:41;101555.41;;;36.80;nan
61086;BME280;46967;48.876;2.136;2023-04-26T07:27:07;101552.09;;;36.85;nan
61086;BME280;46967;48.876;2.136;2023-04-26T07:29:32;101554.19;;;36.90;nan
61086;BME280;46967;48.876;2.136;2023-04-26T07:31:58;101550.50;;;37.11;nan
61086;BME280;46967;48.876;2.136;2023-04-26T07:34:23;101537.84;;;37.18;nan
61086;BME280;46967;48.876;2.136;2023-04-26T07:36:49;101543.94;;;37.40;nan
61086;BME280;46967;48.876;2.136;2023-04-26T07:39:14;101535.59;;;37.62;nan
61086;BME280;46967;48.876;2.136;2023-04-26T07:41:40;101534.78;;;37.68;nan
61086;BME280;46967;48.876;2.136;2023-04-26T07:44:06;101533.94;;;37.54;nan
61086;BME280;46967;48.876;2.136;2023-04-26T07:46:32;101526.66;;;37.34;nan
61086;BME280;46967;48.876;2.136;2023-04-26T07:48:58;101526.88;;;37.53;nan
61086;BME280;46967;48.876;2.136;2023-04-26T07:51:24;101524.16;;;37.33;nan
61086;BME280;46967;48.876;2.136;2023-04-26T07:53:49;101530.19;;;37.62;nan
61086;BME280;46967;48.876;2.136;2023-04-26T07:56:14;101525.53;;;37.15;nan
61086;BME280;46967;48.876;2.136;2023-04-26T07:58:40;101528.25;;;37.15;nan
61086;BME280;46967;48.876;2.136;2023-04-26T08:01:05;101525.53;;;37.09;nan
61086;BME280;46967;48.876;2.136;2023-04-26T08:03:31;101533.94;;;37.34;nan
61086;BME280;46967;48.876;2.136;2023-04-26T08:05:57;101528.69;;;37.26;nan
61086;BME280;46967;48.876;2.136;2023-04-26T08:08:26;101537.06;;;37.31;nan
61086;BME280;46967;48.876;2.136;2023-04-26T08:10:52;101525.13;;;37.12;nan
61086;BME280;46967;48.876;2.136;2023-04-26T08:13:17;101531.84;;;37.43;nan
61086;BME280;46967;48.876;2.136;2023-04-26T08:15:43;101531.03;;;37.56;nan
61086;BME280;46967;48.876;2.136;2023-04-26T08:18:08;101529.56;;;37.66;nan
61086;BME280;46967;48.876;2.136;2023-04-26T08:20:33;101526.03;;;37.32;nan
61086;BME280;46967;48.876;2.136;2023-04-26T08:22:59;101523.13;;;37.81;nan
61086;BME280;46967;48.876;2.136;2023-04-26T08:25:24;101518.44;;;37.08;nan
61086;BME280;46967;48.876;2.136;2023-04-26T08:27:50;101524.38;;;37.51;nan
61086;BME280;46967;48.876;2.136;2023-04-26T08:30:16;101517.91;;;37.86;nan
61086;BME280;46967;48.876;2.136;2023-04-26T08:32:43;101510.69;;;38.52;nan
61086;BME280;46967;48.876;2.136;2023-04-26T08:35:08;101513.44;;;38.38;nan
61086;BME280;46967;48.876;2.136;2023-04-26T08:37:34;101516.44;;;37.63;nan
61086;BME280;46967;48.876;2.136;2023-04-26T08:40:00;101507.34;;;38.56;nan
61086;BME280;46967;48.876;2.136;2023-04-26T08:42:27;101513.88;;;38.42;nan
61086;BME280;46967;48.876;2.136;2023-04-26T08:44:52;101503.13;;;38.74;nan
61086;BME280;46967;48.876;2.136;2023-04-26T08:50:21;101508.97;;;38.57;nan
61086;BME280;46967;48.876;2.136;2023-04-26T08:52:48;101511.59;;;38.39;nan
61086;BME280;46967;48.876;2.136;2023-04-26T08:55:15;101512.75;;;38.63;nan
61086;BME280;46967;48.876;2.136;2023-04-26T08:57:42;101515.34;;;38.90;nan
61086;BME280;46967;48.876;2.136;2023-04-26T09:00:09;101513.34;;;38.72;nan
61086;BME280;46967;48.876;2.136;2023-04-26T09:02:40;101516.38;;;38.89;nan
61086;BME280;46967;48.876;2.136;2023-04-26T09:05:07;101515.84;;;39.12;nan
61086;BME280;46967;48.876;2.136;2023-04-26T09:07:44;101512.72;;;38.70;nan
61086;BME280;46967;48.876;2.136;2023-04-26T09:10:11;101510.59;;;38.78;nan
61086;BME280;46967;48.876;2.136;2023-04-26T09:12:37;101509.63;;;38.66;nan
61086;BME280;46967;48.876;2.136;2023-04-26T09:15:04;101507.94;;;38.72;nan
61086;BME280;46967;48.876;2.136;2023-04-26T09:17:35;101499.38;;;39.07;nan
61086;BME280;46967;48.876;2.136;2023-04-26T09:20:16;101506.00;;;39.43;nan
61086;BME280;46967;48.876;2.136;2023-04-26T09:22:42;101502.84;;;39.46;nan
61086;BME280;46967;48.876;2.136;2023-04-26T09:25:08;101500.78;;;39.41;nan
61086;BME280;46967;48.876;2.136;2023-04-26T09:27:38;101507.88;;;39.93;nan
61086;BME280;46967;48.876;2.136;2023-04-26T09:30:22;101495.78;;;40.14;nan
61086;BME280;46967;48.876;2.136;2023-04-26T09:32:55;101496.78;;;39.94;nan
61086;BME280;46967;48.876;2.136;2023-04-26T09:35:28;101494.63;;;40.40;nan
61086;BME280;46967;48.876;2.136;2023-04-26T09:38:02;101491.63;;;40.48;nan
61086;BME280;46967;48.876;2.136;2023-04-26T09:40:33;101495.66;;;39.83;nan
61086;BME280;46967;48.876;2.136;2023-04-26T09:43:03;101495.53;;;38.89;nan
61086;BME280;46967;48.876;2.136;2023-04-26T09:45:29;101491.81;;;39.91;nan
61086;BME280;46967;48.876;2.136;2023-04-26T09:48:14;101488.16;;;40.23;nan
61086;BME280;46967;48.876;2.136;2023-04-26T09:50:41;101482.16;;;39.77;nan
61086;BME280;46967;48.876;2.136;2023-04-26T09:53:07;101483.91;;;40.08;nan
61086;BME280;46967;48.876;2.136;2023-04-26T09:55:32;101477.38;;;39.97;nan
61086;BME280;46967;48.876;2.136;2023-04-26T09:57:58;101472.81;;;40.10;nan
61086;BME280;46967;48.876;2.136;2023-04-26T10:00:26;101474.00;;;39.77;nan
61086;BME280;46967;48.876;2.136;2023-04-26T10:02:53;101477.97;;;40.18;nan
61086;BME280;46967;48.876;2.136;2023-04-26T10:05:19;101470.63;;;40.37;nan
61086;BME280;46967;48.876;2.136;2023-04-26T10:07:46;101466.06;;;39.94;nan
61086;BME280;46967;48.876;2.136;2023-04-26T10:10:11;101466.38;;;39.85;nan
61086;BME280;46967;48.876;2.136;2023-04-26T10:12:39;101470.09;;;40.10;nan
61086;BME280;46967;48.876;2.136;2023-04-26T10:15:08;101468.44;;;40.46;nan
61086;BME280;46967;48.876;2.136;2023-04-26T10:17:33;101469.50;;;40.75;nan
61086;BME280;46967;48.876;2.136;2023-04-26T10:19:59;101465.59;;;40.83;nan
61086;BME280;46967;48.876;2.136;2023-04-26T10:22:32;101469.97;;;41.14;nan
61086;BME280;46967;48.876;2.136;2023-04-26T10:24:58;101459.69;;;41.16;nan
61086;BME280;46967;48.876;2.136;2023-04-26T10:30:09;101462.84;;;41.01;nan
61086;BME280;46967;48.876;2.136;2023-04-26T10:35:20;101463.59;;;40.78;nan
61086;BME280;46967;48.876;2.136;2023-04-26T10:40:34;101451.78;;;40.54;nan
61086;BME280;46967;48.876;2.136;2023-04-26T10:45:36;101461.81;;;40.42;nan
61086;BME280;46967;48.876;2.136;2023-04-26T10:48:18;101469.34;;;40.70;nan
61086;BME280;46967;48.876;2.136;2023-04-26T10:55:59;101449.72;;;40.68;nan
61086;BME280;46967;48.876;2.136;2023-04-26T10:58:32;101452.88;;;40.16;nan
61086;BME280;46967;48.876;2.136;2023-04-26T11:01:08;101453.75;;;39.98;nan
61086;BME280;46967;48.876;2.136;2023-04-26T11:03:42;101451.75;;;40.24;nan
61086;BME280;46967;48.876;2.136;2023-04-26T11:06:11;101449.88;;;40.06;nan
61086;BME280;46967;48.876;2.136;2023-04-26T11:08:40;101443.16;;;40.45;nan
61086;BME280;46967;48.876;2.136;2023-04-26T11:11:11;101446.69;;;40.46;nan
61086;BME280;46967;48.876;2.136;2023-04-26T11:13:39;101447.91;;;40.50;nan
61086;BME280;46967;48.876;2.136;2023-04-26T11:16:09;101442.94;;;40.59;nan
61086;BME280;46967;48.876;2.136;2023-04-26T11:18:36;101443.50;;;40.49;nan
61086;BME280;46967;48.876;2.136;2023-04-26T11:21:04;101446.34;;;40.05;nan
61086;BME280;46967;48.876;2.136;2023-04-26T11:23:29;101438.28;;;39.73;nan
61086;BME280;46967;48.876;2.136;2023-04-26T11:25:59;101434.47;;;39.62;nan
61086;BME280;46967;48.876;2.136;2023-04-26T11:28:27;101447.81;;;40.68;nan
61086;BME280;46967;48.876;2.136;2023-04-26T11:30:53;101430.78;;;40.12;nan
61086;BME280;46967;48.876;2.136;2023-04-26T11:33:20;101433.56;;;40.24;nan
61086;BME280;46967;48.876;2.136;2023-04-26T11:35:50;101438.22;;;40.05;nan
61086;BME280;46967;48.876;2.136;2023-04-26T11:38:16;101429.63;;;40.38;nan
61086;BME280;46967;48.876;2.136;2023-04-26T11:40:42;101432.56;;;40.37;nan
61086;BME280;46967;48.876;2.136;2023-04-26T11:43:09;101430.31;;;40.34;nan
61086;BME280;46967;48.876;2.136;2023-04-26T11:45:36;101426.34;;;40.18;nan
61086;BME280;46967;48.876;2.136;2023-04-26T11:48:04;101425.69;;;40.53;nan
61086;BME280;46967;48.876;2.136;2023-04-26T11:50:30;101425.34;;;40.12;nan
61086;BME280;46967;48.876;2.136;2023-04-26T11:52:58;101422.59;;;40.00;nan
61086;BME280;46967;48.876;2.136;2023-04-26T11:55:31;101418.00;;;40.31;nan
61086;BME280;46967;48.876;2.136;2023-04-26T11:57:58;101418.09;;;40.25;nan
61086;BME280;46967;48.876;2.136;2023-04-26T12:00:24;101415.69;;;40.16;nan
61086;BME280;46967;48.876;2.136;2023-04-26T12:02:50;101416.22;;;39.88;nan
61086;BME280;46967;48.876;2.136;2023-04-26T12:05:26;101406.69;;;39.60;nan
61086;BME280;46967;48.876;2.136;2023-04-26T12:07:53;101405.56;;;39.87;nan
61086;BME280;46967;48.876;2.136;2023-04-26T12:10:23;101410.09;;;39.93;nan
61086;BME280;46967;48.876;2.136;2023-04-26T12:12:49;101406.22;;;40.68;nan
61086;BME280;46967;48.876;2.136;2023-04-26T12:15:16;101401.78;;;40.85;nan
61086;BME280;46967;48.876;2.136;2023-04-26T12:17:59;101404.19;;;40.63;nan
61086;BME280;46967;48.876;2.136;2023-04-26T12:20:26;101405.00;;;41.06;nan
61086;BME280;46967;48.876;2.136;2023-04-26T12:23:02;101409.22;;;40.78;nan
61086;BME280;46967;48.876;2.136;2023-04-26T12:25:28;101407.03;;;40.99;nan
61086;BME280;46967;48.876;2.136;2023-04-26T12:27:54;101404.50;;;40.85;nan
61086;BME280;46967;48.876;2.136;2023-04-26T12:30:19;101400.75;;;40.86;nan
61086;BME280;46967;48.876;2.136;2023-04-26T12:32:46;101398.63;;;40.58;nan
61086;BME280;46967;48.876;2.136;2023-04-26T12:35:11;101403.38;;;41.17;nan
61086;BME280;46967;48.876;2.136;2023-04-26T12:37:36;101408.00;;;41.40;nan
61086;BME280;46967;48.876;2.136;2023-04-26T12:40:02;101406.19;;;41.22;nan
61086;BME280;46967;48.876;2.136;2023-04-26T12:42:27;101405.25;;;41.04;nan
61086;BME280;46967;48.876;2.136;2023-04-26T12:44:53;101401.19;;;40.83;nan
61086;BME280;46967;48.876;2.136;2023-04-26T12:47:18;101411.28;;;41.18;nan
61086;BME280;46967;48.876;2.136;2023-04-26T12:49:43;101421.63;;;41.28;nan
61086;BME280;46967;48.876;2.136;2023-04-26T12:52:09;101415.81;;;41.24;nan
61086;BME280;46967;48.876;2.136;2023-04-26T12:54:34;101418.38;;;41.19;nan
61086;BME280;46967;48.876;2.136;2023-04-26T12:56:59;101420.13;;;40.90;nan
61086;BME280;46967;48.876;2.136;2023-04-26T12:59:26;101419.47;;;41.30;nan
61086;BME280;46967;48.876;2.136;2023-04-26T13:01:51;101414.97;;;41.59;nan
61086;BME280;46967;48.876;2.136;2023-04-26T13:04:16;101413.56;;;41.57;nan
61086;BME280;46967;48.876;2.136;2023-04-26T13:06:42;101418.34;;;42.02;nan
61086;BME280;46967;48.876;2.136;2023-04-26T13:09:07;101414.31;;;42.05;nan
61086;BME280;46967;48.876;2.136;2023-04-26T13:11:33;101416.22;;;42.04;nan
61086;BME280;46967;48.876;2.136;2023-04-26T13:13:58;101408.41;;;42.36;nan
61086;BME280;46967;48.876;2.136;2023-04-26T13:16:24;101409.81;;;41.98;nan
61086;BME280;46967;48.876;2.136;2023-04-26T13:18:50;101397.63;;;42.13;nan
61086;BME280;46967;48.876;2.136;2023-04-26T13:21:15;101399.34;;;41.78;nan
61086;BME280;46967;48.876;2.136;2023-04-26T13:23:41;101405.81;;;42.59;nan
61086;BME280;46967;48.876;2.136;2023-04-26T13:26:07;101396.59;;;42.60;nan